Kousin Maru No.15 — JL6689 — position and weather

sailwx.info

Track history (hours):
 
Tides and Currents Weather Stations Pressure Air Temp Water Temp Dewpoint Dewpoint Depression Visibility Wind Speed Wind Dir Waves Ship Positions

Kousin Maru No.15

Last reported at 2018-Apr-24 16:30 UTC. Time now 2018-Apr-24 16:33 UTC.
Position N 34°23' E 135°11'.

Length 63 m; draft 4.5 m.

Type: Tanker. MMSI: 431501727.

Date/timePositionNaut miles runAvg speedWind from/ knotsBaromVisibWave heightAir tempDewpointWater temp
2018-Apr-24 16:30N 34°23' E 135°11'0 0.0
2018-Apr-24 16:00N 34°23' E 135°11'0 0.0
2018-Apr-24 15:30N 34°23' E 135°11'0 0.0
2018-Apr-24 15:00N 34°23' E 135°11'0 0.0
2018-Apr-24 14:30N 34°23' E 135°11'0 0.0
2018-Apr-24 14:00N 34°23' E 135°11'0 0.0
2018-Apr-24 13:30N 34°23' E 135°11'0 0.1
2018-Apr-24 12:59N 34°23' E 135°11'4 8.0
2018-Apr-24 12:30N 34°23' E 135°06'612.5
2018-Apr-24 12:00N 34°20' E 135°00'4 8.7
2018-Apr-24 11:30N 34°24' E 135°03'612.6
2018-Apr-24 11:00N 34°26' E 135°09'612.6
2018-Apr-24 10:30N 34°30' E 135°16'612.9
2018-Apr-24 10:01N 34°33' E 135°23'2 4.6
2018-Apr-24 09:31N 34°32' E 135°25'0 0.0
2018-Apr-24 08:58N 34°32' E 135°25'0 0.0
2018-Apr-24 08:28N 34°32' E 135°25'0 0.0
2018-Apr-24 07:58N 34°32' E 135°25'0 0.0
2018-Apr-24 07:28N 34°32' E 135°25'0 0.0
2018-Apr-24 06:58N 34°32' E 135°25'0 0.0
2018-Apr-24 06:28N 34°32' E 135°25'0 0.0
2018-Apr-24 05:55N 34°32' E 135°25'0 0.0
2018-Apr-24 05:28N 34°32' E 135°25'0 0.0
2018-Apr-24 04:58N 34°32' E 135°25'0 0.0
2018-Apr-24 04:28N 34°32' E 135°25'0 0.0
2018-Apr-24 03:58N 34°32' E 135°25'0 0.0
2018-Apr-24 03:28N 34°32' E 135°25'0 0.8
2018-Apr-24 03:00N 34°33' E 135°25'1 1.1
2018-Apr-24 02:30N 34°33' E 135°25'2 4.0
2018-Apr-24 02:00N 34°34' E 135°23'0 0.0
2018-Apr-24 01:26N 34°34' E 135°23'0 0.2
2018-Apr-24 01:00N 34°34' E 135°23'510.3
2018-Apr-24 00:30N 34°32' E 135°17'612.5
2018-Apr-24 00:00N 34°27' E 135°12'612.3
2018-Apr-23 23:30N 34°23' E 135°06'612.2
2018-Apr-23 23:00N 34°19' E 135°01'611.5
2018-Apr-23 22:30N 34°14' E 134°59'612.9
2018-Apr-23 22:00N 34°07' E 134°60'613.0
2018-Apr-23 21:30N 34°01' E 135°01'612.8
2018-Apr-23 21:00N 33°54' E 135°02'712.0
2018-Apr-23 20:27N 33°48' E 135°05'8610.0
2018-Apr-23 11:48N 34°08' E 136°47'33 9.8
2018-Apr-23 08:24N 34°41' E 136°50'712.1
2018-Apr-23 07:49N 34°47' E 136°46'412.1
2018-Apr-23 07:30N 34°50' E 136°44'611.7
2018-Apr-23 07:00N 34°56' E 136°41'2 4.8
2018-Apr-23 06:30N 34°57' E 136°38'0 0.1
2018-Apr-23 05:59N 34°57' E 136°38'0 0.0
2018-Apr-23 05:29N 34°57' E 136°38'0 0.0
2018-Apr-23 04:59N 34°57' E 136°38'0 0.0
2018-Apr-23 04:29N 34°57' E 136°38'0 0.0
2018-Apr-23 03:59N 34°57' E 136°38'0 0.1
2018-Apr-23 03:29N 34°57' E 136°38'0 0.1
2018-Apr-23 02:59N 34°57' E 136°38'0 0.0
2018-Apr-23 02:29N 34°57' E 136°38'0 0.0
2018-Apr-23 01:53N 34°57' E 136°38'0 0.0
2018-Apr-23 01:29N 34°57' E 136°38'0 0.0
2018-Apr-23 00:53N 34°57' E 136°38'0 0.0
2018-Apr-23 00:29N 34°57' E 136°38'0 0.1
2018-Apr-22 23:59N 34°57' E 136°38'0 0.1
2018-Apr-22 23:29N 34°57' E 136°38'0 0.0
2018-Apr-22 22:53N 34°57' E 136°38'0 1.0
2018-Apr-22 22:30N 34°57' E 136°39'1 3.0
2018-Apr-22 22:00N 34°57' E 136°41'0 0.0
2018-Apr-22 21:27N 34°57' E 136°41'0 0.0
2018-Apr-22 21:00N 34°57' E 136°41'0 0.1
2018-Apr-22 20:30N 34°57' E 136°41'0 0.0
2018-Apr-22 20:00N 34°57' E 136°41'0 0.0
2018-Apr-22 19:27N 34°57' E 136°41'0 0.0
2018-Apr-22 19:00N 34°57' E 136°41'0 0.0
2018-Apr-22 18:30N 34°57' E 136°41'0 0.0
2018-Apr-22 18:00N 34°57' E 136°41'0 0.0
2018-Apr-22 17:30N 34°57' E 136°41'0 0.0
2018-Apr-22 17:00N 34°57' E 136°41'0 0.0
2018-Apr-22 16:30N 34°57' E 136°41'0 0.0
2018-Apr-22 16:00N 34°57' E 136°41'0 0.0
2018-Apr-22 15:27N 34°57' E 136°41'0 0.0
2018-Apr-22 14:57N 34°57' E 136°41'0 0.0
2018-Apr-22 14:30N 34°57' E 136°41'0 0.0
2018-Apr-22 13:57N 34°57' E 136°41'0 0.0
2018-Apr-22 13:30N 34°57' E 136°41'0 0.1
2018-Apr-22 12:57N 34°57' E 136°41'0 0.0
2018-Apr-22 12:30N 34°57' E 136°41'0 0.0
2018-Apr-22 12:00N 34°57' E 136°41'0 0.0
2018-Apr-22 11:30N 34°57' E 136°41'0 0.0
2018-Apr-22 11:00N 34°57' E 136°41'0 0.0
2018-Apr-22 10:30N 34°57' E 136°41'0 0.0
2018-Apr-22 10:00N 34°57' E 136°41'0 0.0
2018-Apr-22 09:30N 34°57' E 136°41'0 0.0
2018-Apr-22 09:00N 34°57' E 136°41'0 0.5
2018-Apr-22 08:30N 34°57' E 136°41'612.1
2018-Apr-22 08:00N 34°52' E 136°44'612.8
2018-Apr-22 07:30N 34°46' E 136°48'612.7
2018-Apr-22 07:00N 34°40' E 136°51'812.6
2018-Apr-22 06:23N 34°35' E 136°58'711.2
2018-Apr-22 05:44N 34°32' E 137°06'311.8
2018-Apr-22 05:29N 34°32' E 137°10'612.3
2018-Apr-22 05:00N 34°32' E 137°17'2412.2
2018-Apr-22 03:04N 34°33' E 137°46'511.7
2018-Apr-22 02:38N 34°33' E 137°52'211.7
2018-Apr-22 02:26N 34°33' E 137°55'1512.5
2018-Apr-22 01:12N 34°33' E 138°13'313.0
2018-Apr-22 00:58N 34°33' E 138°17'812.4
2018-Apr-22 00:21N 34°33' E 138°27'511.8
2018-Apr-21 23:58N 34°34' E 138°32'612.0
2018-Apr-21 23:26N 34°34' E 138°40'612.1
2018-Apr-21 22:57N 34°35' E 138°47'611.7
2018-Apr-21 22:27N 34°35' E 138°54'511.4
2018-Apr-21 22:00N 34°38' E 138°59'712.9
2018-Apr-21 21:30N 34°43' E 139°04'612.1
2018-Apr-21 20:59N 34°48' E 139°08'612.9
2018-Apr-21 20:29N 34°53' E 139°13'612.0
2018-Apr-21 20:01N 34°57' E 139°18'612.1
2018-Apr-21 19:29N 35°00' E 139°25'612.5
2018-Apr-21 19:00N 35°02' E 139°31'612.3
2018-Apr-21 18:30N 35°05' E 139°38'611.4
2018-Apr-21 18:00N 35°09' E 139°43'612.2
2018-Apr-21 17:30N 35°14' E 139°46'612.3
2018-Apr-21 17:00N 35°20' E 139°43'611.6
2018-Apr-21 16:30N 35°25' E 139°45'612.5
2018-Apr-21 16:00N 35°29' E 139°51'612.1
2018-Apr-21 15:30N 35°31' E 139°58'4 8.0
2018-Apr-21 15:00N 35°31' E 140°03'0 0.0
2018-Apr-21 14:30N 35°31' E 140°03'0 0.0
2018-Apr-21 03:58N 35°31' E 140°03'1 1.8
2018-Apr-21 03:30N 35°31' E 140°02'1 1.1
2018-Apr-21 02:58N 35°31' E 140°01'0 0.0
2018-Apr-21 02:28N 35°31' E 140°01'0 0.0
2018-Apr-21 01:52N 35°31' E 140°01'0 0.0
2018-Apr-21 01:28N 35°31' E 140°01'0 0.0
2018-Apr-21 00:58N 35°31' E 140°01'0 0.0
2018-Apr-21 00:28N 35°31' E 140°01'0 0.1
2018-Apr-20 23:52N 35°31' E 140°01'0 0.0
2018-Apr-20 23:28N 35°31' E 140°01'0 0.0
2018-Apr-20 22:58N 35°31' E 140°01'0 0.0
2018-Apr-20 22:28N 35°31' E 140°01'0 0.1
2018-Apr-20 21:52N 35°31' E 140°01'0 0.0
2018-Apr-20 21:28N 35°31' E 140°01'0 0.0
2018-Apr-20 20:58N 35°31' E 140°01'0 0.0
2018-Apr-20 20:28N 35°31' E 140°01'0 0.0
2018-Apr-20 19:52N 35°31' E 140°01'0 0.0
2018-Apr-20 19:28N 35°31' E 140°01'0 0.0
2018-Apr-20 18:58N 35°31' E 140°01'0 0.0
2018-Apr-20 18:28N 35°31' E 140°01'0 0.0
2018-Apr-20 17:58N 35°31' E 140°01'0 0.0
2018-Apr-20 17:28N 35°31' E 140°01'0 0.0
2018-Apr-20 16:55N 35°31' E 140°01'0 0.1
2018-Apr-20 16:28N 35°31' E 140°01'0 0.0
2018-Apr-20 15:58N 35°31' E 140°01'0 0.0
2018-Apr-20 15:28N 35°31' E 140°01'0 0.0
2018-Apr-20 14:58N 35°31' E 140°01'0 0.0
2018-Apr-20 14:28N 35°31' E 140°01'0 0.1
2018-Apr-20 13:52N 35°31' E 140°01'0 0.1
2018-Apr-20 13:28N 35°31' E 140°01'0 0.0
2018-Apr-20 12:58N 35°31' E 140°01'0 0.1
2018-Apr-20 12:28N 35°31' E 140°01'1 2.3
2018-Apr-20 12:00N 35°31' E 140°02'0 0.6
2018-Apr-20 11:26N 35°31' E 140°03'0 0.0
2018-Apr-20 03:19N 35°31' E 140°03'0 1.3
2018-Apr-20 03:00N 35°31' E 140°02'510.5
2018-Apr-20 02:30N 35°29' E 139°56'1 1.8
2018-Apr-20 01:53N 35°28' E 139°55'0 0.0
2018-Apr-20 01:29N 35°28' E 139°55'0 0.0
2018-Apr-20 00:38N 35°28' E 139°55'0 0.0
2018-Apr-19 23:29N 35°28' E 139°55'0 0.0
2018-Apr-19 22:53N 35°28' E 139°55'0 0.1
2018-Apr-19 22:29N 35°28' E 139°55'0 0.0
2018-Apr-19 21:59N 35°28' E 139°55'0 0.0
2018-Apr-19 21:29N 35°28' E 139°55'0 0.0
2018-Apr-19 20:50N 35°28' E 139°55'0 0.0
2018-Apr-19 20:29N 35°28' E 139°55'0 0.0
2018-Apr-19 19:56N 35°28' E 139°55'0 0.0
2018-Apr-19 19:23N 35°28' E 139°55'0 0.0
2018-Apr-19 18:59N 35°28' E 139°55'0 0.0
2018-Apr-19 18:29N 35°28' E 139°55'0 0.1
2018-Apr-19 18:00N 35°28' E 139°55'510.1
2018-Apr-19 17:30N 35°27' E 139°49'612.6
2018-Apr-19 17:00N 35°21' E 139°45'611.3
2018-Apr-19 16:30N 35°16' E 139°47'712.5
2018-Apr-19 15:59N 35°09' E 139°46'613.1
2018-Apr-19 15:30N 35°03' E 139°45'611.9
2018-Apr-19 15:00N 34°57' E 139°44'611.7
2018-Apr-19 14:29N 34°53' E 139°49'811.7
2018-Apr-19 13:46N 34°53' E 139°59'311.7
2018-Apr-19 13:30N 34°55' E 140°02'611.8
2018-Apr-19 13:00N 34°58' E 140°08'1011.5
2018-Apr-19 12:10N 35°04' E 140°18'9 0.3
2018-Apr-18 00:02N 34°60' E 140°08'011.8
2018-Apr-18 00:00N 34°60' E 140°07'510.6
2018-Apr-17 23:30N 34°57' E 140°02'1010.1
2018-Apr-17 22:32N 34°52' E 139°51'311.4
2018-Apr-17 22:18N 34°52' E 139°48'611.4
2018-Apr-17 21:46N 34°57' E 139°44'310.3
2018-Apr-17 21:27N 35°01' E 139°43'512.5
2018-Apr-17 21:01N 35°06' E 139°44'713.3
2018-Apr-17 20:31N 35°13' E 139°46'612.0
2018-Apr-17 20:00N 35°18' E 139°44'611.8
2018-Apr-17 19:31N 35°24' E 139°43'612.4
2018-Apr-17 19:00N 35°28' E 139°49'612.5
2018-Apr-17 18:30N 35°31' E 139°56'511.3
2018-Apr-17 18:00N 35°31' E 140°03'0 0.2
2018-Apr-17 17:30N 35°31' E 140°03'0 0.0
2018-Apr-17 06:02N 35°31' E 140°03'0 0.0
2018-Apr-17 06:00N 35°31' E 140°03'2 3.4
2018-Apr-17 05:30N 35°31' E 140°01'612.2
2018-Apr-17 04:59N 35°31' E 139°53'3 5.7
2018-Apr-17 04:30N 35°30' E 139°50'0 0.0
2018-Apr-17 04:00N 35°30' E 139°50'0 0.0
2018-Apr-17 03:28N 35°30' E 139°50'0 0.0
2018-Apr-17 02:58N 35°30' E 139°50'1 1.7
2018-Apr-17 02:31N 35°30' E 139°49'3 6.2
2018-Apr-17 02:00N 35°31' E 139°46'0 0.0
2018-Apr-17 01:30N 35°31' E 139°46'0 0.0
2018-Apr-17 01:00N 35°31' E 139°46'0 0.0
2018-Apr-17 00:30N 35°31' E 139°46'0 0.0
2018-Apr-17 00:00N 35°31' E 139°46'0 0.0
2018-Apr-16 23:30N 35°31' E 139°46'0 0.0
2018-Apr-16 23:00N 35°31' E 139°46'1 1.3
2018-Apr-16 22:30N 35°31' E 139°46'3 6.1
2018-Apr-16 21:58N 35°30' E 139°50'0 0.0
2018-Apr-16 20:40N 35°30' E 139°50'0 0.0
2018-Apr-16 20:28N 35°30' E 139°50'0 0.1
2018-Apr-16 19:46N 35°30' E 139°50'0 0.2
2018-Apr-16 19:28N 35°30' E 139°50'0 0.0
2018-Apr-16 18:58N 35°30' E 139°50'0 0.0
2018-Apr-16 18:28N 35°30' E 139°50'0 0.0
2018-Apr-16 17:58N 35°30' E 139°50'0 0.0
2018-Apr-16 17:28N 35°30' E 139°50'0 0.0
2018-Apr-16 16:58N 35°30' E 139°50'0 0.0
2018-Apr-16 16:25N 35°30' E 139°50'0 0.0
2018-Apr-16 15:52N 35°30' E 139°50'0 0.0
2018-Apr-16 15:28N 35°30' E 139°50'0 0.0
2018-Apr-16 14:58N 35°30' E 139°50'0 0.0
2018-Apr-16 14:28N 35°30' E 139°50'0 0.0
2018-Apr-16 13:52N 35°30' E 139°50'0 0.0
2018-Apr-16 13:28N 35°30' E 139°50'0 0.0
2018-Apr-16 12:58N 35°30' E 139°50'0 0.0
2018-Apr-16 12:28N 35°30' E 139°50'0 0.0
2018-Apr-16 11:58N 35°30' E 139°50'0 0.0
2018-Apr-16 11:28N 35°30' E 139°50'1 3.2
2018-Apr-16 11:01N 35°30' E 139°52'713.2
2018-Apr-16 10:30N 35°31' E 139°60'2 5.0
2018-Apr-16 10:01N 35°31' E 140°03'0 0.0
2018-Apr-16 09:31N 35°31' E 140°03'0 0.0
2018-Apr-16 09:00N 35°31' E 140°03'0 0.0
2018-Apr-15 22:46N 35°31' E 140°03'0 1.1
2018-Apr-15 22:30N 35°31' E 140°02'510.8
2018-Apr-15 22:00N 35°32' E 139°56'2 0.4
2018-Apr-15 16:47N 35°32' E 139°53'0 0.0
2018-Apr-15 16:26N 35°32' E 139°53'0 0.0
2018-Apr-15 13:47N 35°32' E 139°53'0 0.0
2018-Apr-15 13:23N 35°32' E 139°53'0 0.0
2018-Apr-15 12:56N 35°32' E 139°53'0 0.0
2018-Apr-15 11:29N 35°32' E 139°53'0 0.0
2018-Apr-15 09:44N 35°32' E 139°53'0 0.2
2018-Apr-15 09:29N 35°32' E 139°53'0 0.0
2018-Apr-15 08:17N 35°32' E 139°53'0 0.0
2018-Apr-15 07:50N 35°32' E 139°53'0 0.0
2018-Apr-15 07:17N 35°32' E 139°53'0 0.0
2018-Apr-15 06:53N 35°32' E 139°53'0 0.0
2018-Apr-15 06:29N 35°32' E 139°53'0 0.0
2018-Apr-15 05:59N 35°32' E 139°53'0 0.0
2018-Apr-15 05:23N 35°32' E 139°53'0 0.0
2018-Apr-15 04:59N 35°32' E 139°53'0 0.0
2018-Apr-15 04:29N 35°32' E 139°53'0 0.0
2018-Apr-15 02:38N 35°32' E 139°53'0 3.0
2018-Apr-15 02:29N 35°32' E 139°53'612.0
2018-Apr-15 02:00N 35°27' E 139°50'612.1
2018-Apr-15 01:31N 35°22' E 139°45'611.0
2018-Apr-15 01:00N 35°17' E 139°46'611.7
2018-Apr-15 00:30N 35°11' E 139°47'612.8
2018-Apr-15 00:00N 35°05' E 139°43'612.9
2018-Apr-14 23:31N 35°01' E 139°37'1713.8
2018-Apr-14 22:17N 34°51' E 139°21'413.9
2018-Apr-14 22:00N 34°49' E 139°17'713.5
2018-Apr-14 21:30N 34°44' E 139°11'612.4
2018-Apr-14 21:00N 34°40' E 139°05'712.2
2018-Apr-14 20:27N 34°37' E 138°58'612.1
2018-Apr-14 19:56N 34°35' E 138°51'711.7
2018-Apr-14 19:21N 34°34' E 138°42'1111.6
2018-Apr-14 18:25N 34°33' E 138°29'711.1
2018-Apr-14 17:47N 34°33' E 138°21'311.1
2018-Apr-14 17:29N 34°33' E 138°17'  
Track history (hours):
 
Tides and Currents Weather Stations Pressure Air Temp Water Temp Dewpoint Dewpoint Depression Visibility Wind Speed Wind Dir Waves Ship Positions

Kousin Maru No.15

Last reported at 2018-Apr-24 16:30 UTC. Time now 2018-Apr-24 16:33 UTC.
Position N 34°23' E 135°11'.

Length 63 m; draft 4.5 m.

Type: Tanker. MMSI: 431501727.

Date/timePositionNaut miles runAvg speedWind from/ knotsBaromVisibWave heightAir tempDewpointWater temp
2018-Apr-24 16:30N 34°23' E 135°11'0 0.0
2018-Apr-24 16:00N 34°23' E 135°11'0 0.0
2018-Apr-24 15:30N 34°23' E 135°11'0 0.0
2018-Apr-24 15:00N 34°23' E 135°11'0 0.0
2018-Apr-24 14:30N 34°23' E 135°11'0 0.0
2018-Apr-24 14:00N 34°23' E 135°11'0 0.0
2018-Apr-24 13:30N 34°23' E 135°11'0 0.1
2018-Apr-24 12:59N 34°23' E 135°11'4 8.0
2018-Apr-24 12:30N 34°23' E 135°06'612.5
2018-Apr-24 12:00N 34°20' E 135°00'4 8.7
2018-Apr-24 11:30N 34°24' E 135°03'612.6
2018-Apr-24 11:00N 34°26' E 135°09'612.6
2018-Apr-24 10:30N 34°30' E 135°16'612.9
2018-Apr-24 10:01N 34°33' E 135°23'2 4.6
2018-Apr-24 09:31N 34°32' E 135°25'0 0.0
2018-Apr-24 08:58N 34°32' E 135°25'0 0.0
2018-Apr-24 08:28N 34°32' E 135°25'0 0.0
2018-Apr-24 07:58N 34°32' E 135°25'0 0.0
2018-Apr-24 07:28N 34°32' E 135°25'0 0.0
2018-Apr-24 06:58N 34°32' E 135°25'0 0.0
2018-Apr-24 06:28N 34°32' E 135°25'0 0.0
2018-Apr-24 05:55N 34°32' E 135°25'0 0.0
2018-Apr-24 05:28N 34°32' E 135°25'0 0.0
2018-Apr-24 04:58N 34°32' E 135°25'0 0.0
2018-Apr-24 04:28N 34°32' E 135°25'0 0.0
2018-Apr-24 03:58N 34°32' E 135°25'0 0.0
2018-Apr-24 03:28N 34°32' E 135°25'0 0.8
2018-Apr-24 03:00N 34°33' E 135°25'1 1.1
2018-Apr-24 02:30N 34°33' E 135°25'2 4.0
2018-Apr-24 02:00N 34°34' E 135°23'0 0.0
2018-Apr-24 01:26N 34°34' E 135°23'0 0.2
2018-Apr-24 01:00N 34°34' E 135°23'510.3
2018-Apr-24 00:30N 34°32' E 135°17'612.5
2018-Apr-24 00:00N 34°27' E 135°12'612.3
2018-Apr-23 23:30N 34°23' E 135°06'612.2
2018-Apr-23 23:00N 34°19' E 135°01'611.5
2018-Apr-23 22:30N 34°14' E 134°59'612.9
2018-Apr-23 22:00N 34°07' E 134°60'613.0
2018-Apr-23 21:30N 34°01' E 135°01'612.8
2018-Apr-23 21:00N 33°54' E 135°02'712.0
2018-Apr-23 20:27N 33°48' E 135°05'8610.0
2018-Apr-23 11:48N 34°08' E 136°47'33 9.8
2018-Apr-23 08:24N 34°41' E 136°50'712.1
2018-Apr-23 07:49N 34°47' E 136°46'412.1
2018-Apr-23 07:30N 34°50' E 136°44'611.7
2018-Apr-23 07:00N 34°56' E 136°41'2 4.8
2018-Apr-23 06:30N 34°57' E 136°38'0 0.1
2018-Apr-23 05:59N 34°57' E 136°38'0 0.0
2018-Apr-23 05:29N 34°57' E 136°38'0 0.0
2018-Apr-23 04:59N 34°57' E 136°38'0 0.0
2018-Apr-23 04:29N 34°57' E 136°38'0 0.0
2018-Apr-23 03:59N 34°57' E 136°38'0 0.1
2018-Apr-23 03:29N 34°57' E 136°38'0 0.1
2018-Apr-23 02:59N 34°57' E 136°38'0 0.0
2018-Apr-23 02:29N 34°57' E 136°38'0 0.0
2018-Apr-23 01:53N 34°57' E 136°38'0 0.0
2018-Apr-23 01:29N 34°57' E 136°38'0 0.0
2018-Apr-23 00:53N 34°57' E 136°38'0 0.0
2018-Apr-23 00:29N 34°57' E 136°38'0 0.1
2018-Apr-22 23:59N 34°57' E 136°38'0 0.1
2018-Apr-22 23:29N 34°57' E 136°38'0 0.0
2018-Apr-22 22:53N 34°57' E 136°38'0 1.0
2018-Apr-22 22:30N 34°57' E 136°39'1 3.0
2018-Apr-22 22:00N 34°57' E 136°41'0 0.0
2018-Apr-22 21:27N 34°57' E 136°41'0 0.0
2018-Apr-22 21:00N 34°57' E 136°41'0 0.1
2018-Apr-22 20:30N 34°57' E 136°41'0 0.0
2018-Apr-22 20:00N 34°57' E 136°41'0 0.0
2018-Apr-22 19:27N 34°57' E 136°41'0 0.0
2018-Apr-22 19:00N 34°57' E 136°41'0 0.0
2018-Apr-22 18:30N 34°57' E 136°41'0 0.0
2018-Apr-22 18:00N 34°57' E 136°41'0 0.0
2018-Apr-22 17:30N 34°57' E 136°41'0 0.0
2018-Apr-22 17:00N 34°57' E 136°41'0 0.0
2018-Apr-22 16:30N 34°57' E 136°41'0 0.0
2018-Apr-22 16:00N 34°57' E 136°41'0 0.0
2018-Apr-22 15:27N 34°57' E 136°41'0 0.0
2018-Apr-22 14:57N 34°57' E 136°41'0 0.0
2018-Apr-22 14:30N 34°57' E 136°41'0 0.0
2018-Apr-22 13:57N 34°57' E 136°41'0 0.0
2018-Apr-22 13:30N 34°57' E 136°41'0 0.1
2018-Apr-22 12:57N 34°57' E 136°41'0 0.0
2018-Apr-22 12:30N 34°57' E 136°41'0 0.0
2018-Apr-22 12:00N 34°57' E 136°41'0 0.0
2018-Apr-22 11:30N 34°57' E 136°41'0 0.0
2018-Apr-22 11:00N 34°57' E 136°41'0 0.0
2018-Apr-22 10:30N 34°57' E 136°41'0 0.0
2018-Apr-22 10:00N 34°57' E 136°41'0 0.0
2018-Apr-22 09:30N 34°57' E 136°41'0 0.0
2018-Apr-22 09:00N 34°57' E 136°41'0 0.5
2018-Apr-22 08:30N 34°57' E 136°41'612.1
2018-Apr-22 08:00N 34°52' E 136°44'612.8
2018-Apr-22 07:30N 34°46' E 136°48'612.7
2018-Apr-22 07:00N 34°40' E 136°51'812.6
2018-Apr-22 06:23N 34°35' E 136°58'711.2
2018-Apr-22 05:44N 34°32' E 137°06'311.8
2018-Apr-22 05:29N 34°32' E 137°10'612.3
2018-Apr-22 05:00N 34°32' E 137°17'2412.2
2018-Apr-22 03:04N 34°33' E 137°46'511.7
2018-Apr-22 02:38N 34°33' E 137°52'211.7
2018-Apr-22 02:26N 34°33' E 137°55'1512.5
2018-Apr-22 01:12N 34°33' E 138°13'313.0
2018-Apr-22 00:58N 34°33' E 138°17'812.4
2018-Apr-22 00:21N 34°33' E 138°27'511.8
2018-Apr-21 23:58N 34°34' E 138°32'612.0
2018-Apr-21 23:26N 34°34' E 138°40'612.1
2018-Apr-21 22:57N 34°35' E 138°47'611.7
2018-Apr-21 22:27N 34°35' E 138°54'511.4
2018-Apr-21 22:00N 34°38' E 138°59'712.9
2018-Apr-21 21:30N 34°43' E 139°04'612.1
2018-Apr-21 20:59N 34°48' E 139°08'612.9
2018-Apr-21 20:29N 34°53' E 139°13'612.0
2018-Apr-21 20:01N 34°57' E 139°18'612.1
2018-Apr-21 19:29N 35°00' E 139°25'612.5
2018-Apr-21 19:00N 35°02' E 139°31'612.3
2018-Apr-21 18:30N 35°05' E 139°38'611.4
2018-Apr-21 18:00N 35°09' E 139°43'612.2
2018-Apr-21 17:30N 35°14' E 139°46'612.3
2018-Apr-21 17:00N 35°20' E 139°43'611.6
2018-Apr-21 16:30N 35°25' E 139°45'612.5
2018-Apr-21 16:00N 35°29' E 139°51'612.1
2018-Apr-21 15:30N 35°31' E 139°58'4 8.0
2018-Apr-21 15:00N 35°31' E 140°03'0 0.0
2018-Apr-21 14:30N 35°31' E 140°03'0 0.0
2018-Apr-21 03:58N 35°31' E 140°03'1 1.8
2018-Apr-21 03:30N 35°31' E 140°02'1 1.1
2018-Apr-21 02:58N 35°31' E 140°01'0 0.0
2018-Apr-21 02:28N 35°31' E 140°01'0 0.0
2018-Apr-21 01:52N 35°31' E 140°01'0 0.0
2018-Apr-21 01:28N 35°31' E 140°01'0 0.0
2018-Apr-21 00:58N 35°31' E 140°01'0 0.0
2018-Apr-21 00:28N 35°31' E 140°01'0 0.1
2018-Apr-20 23:52N 35°31' E 140°01'0 0.0
2018-Apr-20 23:28N 35°31' E 140°01'0 0.0
2018-Apr-20 22:58N 35°31' E 140°01'0 0.0
2018-Apr-20 22:28N 35°31' E 140°01'0 0.1
2018-Apr-20 21:52N 35°31' E 140°01'0 0.0
2018-Apr-20 21:28N 35°31' E 140°01'0 0.0
2018-Apr-20 20:58N 35°31' E 140°01'0 0.0
2018-Apr-20 20:28N 35°31' E 140°01'0 0.0
2018-Apr-20 19:52N 35°31' E 140°01'0 0.0
2018-Apr-20 19:28N 35°31' E 140°01'0 0.0
2018-Apr-20 18:58N 35°31' E 140°01'0 0.0
2018-Apr-20 18:28N 35°31' E 140°01'0 0.0
2018-Apr-20 17:58N 35°31' E 140°01'0 0.0
2018-Apr-20 17:28N 35°31' E 140°01'0 0.0
2018-Apr-20 16:55N 35°31' E 140°01'0 0.1
2018-Apr-20 16:28N 35°31' E 140°01'0 0.0
2018-Apr-20 15:58N 35°31' E 140°01'0 0.0
2018-Apr-20 15:28N 35°31' E 140°01'0 0.0
2018-Apr-20 14:58N 35°31' E 140°01'0 0.0
2018-Apr-20 14:28N 35°31' E 140°01'0 0.1
2018-Apr-20 13:52N 35°31' E 140°01'0 0.1
2018-Apr-20 13:28N 35°31' E 140°01'0 0.0
2018-Apr-20 12:58N 35°31' E 140°01'0 0.1
2018-Apr-20 12:28N 35°31' E 140°01'1 2.3
2018-Apr-20 12:00N 35°31' E 140°02'0 0.6
2018-Apr-20 11:26N 35°31' E 140°03'0 0.0
2018-Apr-20 03:19N 35°31' E 140°03'0 1.3
2018-Apr-20 03:00N 35°31' E 140°02'510.5
2018-Apr-20 02:30N 35°29' E 139°56'1 1.8
2018-Apr-20 01:53N 35°28' E 139°55'0 0.0
2018-Apr-20 01:29N 35°28' E 139°55'0 0.0
2018-Apr-20 00:38N 35°28' E 139°55'0 0.0
2018-Apr-19 23:29N 35°28' E 139°55'0 0.0
2018-Apr-19 22:53N 35°28' E 139°55'0 0.1
2018-Apr-19 22:29N 35°28' E 139°55'0 0.0
2018-Apr-19 21:59N 35°28' E 139°55'0 0.0
2018-Apr-19 21:29N 35°28' E 139°55'0 0.0
2018-Apr-19 20:50N 35°28' E 139°55'0 0.0
2018-Apr-19 20:29N 35°28' E 139°55'0 0.0
2018-Apr-19 19:56N 35°28' E 139°55'0 0.0
2018-Apr-19 19:23N 35°28' E 139°55'0 0.0
2018-Apr-19 18:59N 35°28' E 139°55'0 0.0
2018-Apr-19 18:29N 35°28' E 139°55'0 0.1
2018-Apr-19 18:00N 35°28' E 139°55'510.1
2018-Apr-19 17:30N 35°27' E 139°49'612.6
2018-Apr-19 17:00N 35°21' E 139°45'611.3
2018-Apr-19 16:30N 35°16' E 139°47'712.5
2018-Apr-19 15:59N 35°09' E 139°46'613.1
2018-Apr-19 15:30N 35°03' E 139°45'611.9
2018-Apr-19 15:00N 34°57' E 139°44'611.7
2018-Apr-19 14:29N 34°53' E 139°49'811.7
2018-Apr-19 13:46N 34°53' E 139°59'311.7
2018-Apr-19 13:30N 34°55' E 140°02'611.8
2018-Apr-19 13:00N 34°58' E 140°08'1011.5
2018-Apr-19 12:10N 35°04' E 140°18'9 0.3
2018-Apr-18 00:02N 34°60' E 140°08'011.8
2018-Apr-18 00:00N 34°60' E 140°07'510.6
2018-Apr-17 23:30N 34°57' E 140°02'1010.1
2018-Apr-17 22:32N 34°52' E 139°51'311.4
2018-Apr-17 22:18N 34°52' E 139°48'611.4
2018-Apr-17 21:46N 34°57' E 139°44'310.3
2018-Apr-17 21:27N 35°01' E 139°43'512.5
2018-Apr-17 21:01N 35°06' E 139°44'713.3
2018-Apr-17 20:31N 35°13' E 139°46'612.0
2018-Apr-17 20:00N 35°18' E 139°44'611.8
2018-Apr-17 19:31N 35°24' E 139°43'612.4
2018-Apr-17 19:00N 35°28' E 139°49'612.5
2018-Apr-17 18:30N 35°31' E 139°56'511.3
2018-Apr-17 18:00N 35°31' E 140°03'0 0.2
2018-Apr-17 17:30N 35°31' E 140°03'0 0.0
2018-Apr-17 06:02N 35°31' E 140°03'0 0.0
2018-Apr-17 06:00N 35°31' E 140°03'2 3.4
2018-Apr-17 05:30N 35°31' E 140°01'612.2
2018-Apr-17 04:59N 35°31' E 139°53'3 5.7
2018-Apr-17 04:30N 35°30' E 139°50'0 0.0
2018-Apr-17 04:00N 35°30' E 139°50'0 0.0
2018-Apr-17 03:28N 35°30' E 139°50'0 0.0
2018-Apr-17 02:58N 35°30' E 139°50'1 1.7
2018-Apr-17 02:31N 35°30' E 139°49'3 6.2
2018-Apr-17 02:00N 35°31' E 139°46'0 0.0
2018-Apr-17 01:30N 35°31' E 139°46'0 0.0
2018-Apr-17 01:00N 35°31' E 139°46'0 0.0
2018-Apr-17 00:30N 35°31' E 139°46'0 0.0
2018-Apr-17 00:00N 35°31' E 139°46'0 0.0
2018-Apr-16 23:30N 35°31' E 139°46'0 0.0
2018-Apr-16 23:00N 35°31' E 139°46'1 1.3
2018-Apr-16 22:30N 35°31' E 139°46'3 6.1
2018-Apr-16 21:58N 35°30' E 139°50'0 0.0
2018-Apr-16 20:40N 35°30' E 139°50'0 0.0
2018-Apr-16 20:28N 35°30' E 139°50'0 0.1
2018-Apr-16 19:46N 35°30' E 139°50'0 0.2
2018-Apr-16 19:28N 35°30' E 139°50'0 0.0
2018-Apr-16 18:58N 35°30' E 139°50'0 0.0
2018-Apr-16 18:28N 35°30' E 139°50'0 0.0
2018-Apr-16 17:58N 35°30' E 139°50'0 0.0
2018-Apr-16 17:28N 35°30' E 139°50'0 0.0
2018-Apr-16 16:58N 35°30' E 139°50'0 0.0
2018-Apr-16 16:25N 35°30' E 139°50'0 0.0
2018-Apr-16 15:52N 35°30' E 139°50'0 0.0
2018-Apr-16 15:28N 35°30' E 139°50'0 0.0
2018-Apr-16 14:58N 35°30' E 139°50'0 0.0
2018-Apr-16 14:28N 35°30' E 139°50'0 0.0
2018-Apr-16 13:52N 35°30' E 139°50'0 0.0
2018-Apr-16 13:28N 35°30' E 139°50'0 0.0
2018-Apr-16 12:58N 35°30' E 139°50'0 0.0
2018-Apr-16 12:28N 35°30' E 139°50'0 0.0
2018-Apr-16 11:58N 35°30' E 139°50'0 0.0
2018-Apr-16 11:28N 35°30' E 139°50'1 3.2
2018-Apr-16 11:01N 35°30' E 139°52'713.2
2018-Apr-16 10:30N 35°31' E 139°60'2 5.0
2018-Apr-16 10:01N 35°31' E 140°03'0 0.0
2018-Apr-16 09:31N 35°31' E 140°03'0 0.0
2018-Apr-16 09:00N 35°31' E 140°03'0 0.0
2018-Apr-15 22:46N 35°31' E 140°03'0 1.1
2018-Apr-15 22:30N 35°31' E 140°02'510.8
2018-Apr-15 22:00N 35°32' E 139°56'2 0.4
2018-Apr-15 16:47N 35°32' E 139°53'0 0.0
2018-Apr-15 16:26N 35°32' E 139°53'0 0.0
2018-Apr-15 13:47N 35°32' E 139°53'0 0.0
2018-Apr-15 13:23N 35°32' E 139°53'0 0.0
2018-Apr-15 12:56N 35°32' E 139°53'0 0.0
2018-Apr-15 11:29N 35°32' E 139°53'0 0.0
2018-Apr-15 09:44N 35°32' E 139°53'0 0.2
2018-Apr-15 09:29N 35°32' E 139°53'0 0.0
2018-Apr-15 08:17N 35°32' E 139°53'0 0.0
2018-Apr-15 07:50N 35°32' E 139°53'0 0.0
2018-Apr-15 07:17N 35°32' E 139°53'0 0.0
2018-Apr-15 06:53N 35°32' E 139°53'0 0.0
2018-Apr-15 06:29N 35°32' E 139°53'0 0.0
2018-Apr-15 05:59N 35°32' E 139°53'0 0.0
2018-Apr-15 05:23N 35°32' E 139°53'0 0.0
2018-Apr-15 04:59N 35°32' E 139°53'0 0.0
2018-Apr-15 04:29N 35°32' E 139°53'0 0.0
2018-Apr-15 02:38N 35°32' E 139°53'0 3.0
2018-Apr-15 02:29N 35°32' E 139°53'612.0
2018-Apr-15 02:00N 35°27' E 139°50'612.1
2018-Apr-15 01:31N 35°22' E 139°45'611.0
2018-Apr-15 01:00N 35°17' E 139°46'611.7
2018-Apr-15 00:30N 35°11' E 139°47'612.8
2018-Apr-15 00:00N 35°05' E 139°43'612.9
2018-Apr-14 23:31N 35°01' E 139°37'1713.8
2018-Apr-14 22:17N 34°51' E 139°21'413.9
2018-Apr-14 22:00N 34°49' E 139°17'713.5
2018-Apr-14 21:30N 34°44' E 139°11'612.4
2018-Apr-14 21:00N 34°40' E 139°05'712.2
2018-Apr-14 20:27N 34°37' E 138°58'612.1
2018-Apr-14 19:56N 34°35' E 138°51'711.7
2018-Apr-14 19:21N 34°34' E 138°42'1111.6
2018-Apr-14 18:25N 34°33' E 138°29'711.1
2018-Apr-14 17:47N 34°33' E 138°21'311.1
2018-Apr-14 17:29N 34°33' E 138°17'  

Dump ship's entire track history